sensor_id;sensor_type;location;lat;lon;timestamp;pressure;altitude;pressure_sealevel;temperature;humidity
39265;BME280;42646;51.910;7.724;2023-01-31T00:00:44;101662.91;;;4.09;100.00
39265;BME280;42646;51.910;7.724;2023-01-31T00:03:12;101672.56;;;4.09;100.00
39265;BME280;42646;51.910;7.724;2023-01-31T00:05:42;101664.59;;;4.10;100.00
39265;BME280;42646;51.910;7.724;2023-01-31T00:08:10;101667.38;;;4.07;100.00
39265;BME280;42646;51.910;7.724;2023-01-31T00:10:39;101665.53;;;4.09;100.00
39265;BME280;42646;51.910;7.724;2023-01-31T00:13:08;101651.56;;;4.07;100.00
39265;BME280;42646;51.910;7.724;2023-01-31T00:15:36;101657.00;;;4.04;100.00
39265;BME280;42646;51.910;7.724;2023-01-31T00:18:05;101650.81;;;4.05;100.00
39265;BME280;42646;51.910;7.724;2023-01-31T00:20:34;101651.84;;;4.01;100.00
39265;BME280;42646;51.910;7.724;2023-01-31T00:23:03;101660.78;;;3.98;100.00
39265;BME280;42646;51.910;7.724;2023-01-31T00:25:32;101657.13;;;4.01;100.00
39265;BME280;42646;51.910;7.724;2023-01-31T00:28:03;101667.81;;;3.98;100.00
39265;BME280;42646;51.910;7.724;2023-01-31T00:30:33;101664.03;;;4.04;100.00
39265;BME280;42646;51.910;7.724;2023-01-31T00:33:03;101672.22;;;3.97;100.00
39265;BME280;42646;51.910;7.724;2023-01-31T00:35:30;101672.34;;;3.94;100.00
39265;BME280;42646;51.910;7.724;2023-01-31T00:37:58;101669.66;;;3.96;100.00
39265;BME280;42646;51.910;7.724;2023-01-31T00:40:30;101666.44;;;3.89;100.00
39265;BME280;42646;51.910;7.724;2023-01-31T00:42:58;101665.88;;;3.83;100.00
39265;BME280;42646;51.910;7.724;2023-01-31T00:45:34;101667.00;;;3.77;100.00
39265;BME280;42646;51.910;7.724;2023-01-31T00:48:04;101657.50;;;3.74;100.00
39265;BME280;42646;51.910;7.724;2023-01-31T00:50:32;101650.56;;;3.72;100.00
39265;BME280;42646;51.910;7.724;2023-01-31T00:53:10;101657.81;;;3.67;100.00
39265;BME280;42646;51.910;7.724;2023-01-31T00:55:42;101663.16;;;3.65;100.00
39265;BME280;42646;51.910;7.724;2023-01-31T00:58:10;101668.69;;;3.59;100.00
39265;BME280;42646;51.910;7.724;2023-01-31T01:00:42;101663.50;;;3.58;100.00
39265;BME280;42646;51.910;7.724;2023-01-31T01:03:13;101664.44;;;3.57;100.00
39265;BME280;42646;51.910;7.724;2023-01-31T01:05:40;101663.06;;;3.48;100.00
39265;BME280;42646;51.910;7.724;2023-01-31T01:08:08;101669.41;;;3.44;100.00
39265;BME280;42646;51.910;7.724;2023-01-31T01:10:37;101659.00;;;3.41;100.00
39265;BME280;42646;51.910;7.724;2023-01-31T01:13:13;101657.41;;;3.37;100.00
39265;BME280;42646;51.910;7.724;2023-01-31T01:15:42;101651.38;;;3.35;100.00
39265;BME280;42646;51.910;7.724;2023-01-31T01:18:09;101654.94;;;3.34;100.00
39265;BME280;42646;51.910;7.724;2023-01-31T01:20:37;101658.53;;;3.31;100.00
39265;BME280;42646;51.910;7.724;2023-01-31T01:23:05;101665.72;;;3.28;100.00
39265;BME280;42646;51.910;7.724;2023-01-31T01:25:41;101669.31;;;3.25;100.00
39265;BME280;42646;51.910;7.724;2023-01-31T01:28:11;101659.66;;;3.26;100.00
39265;BME280;42646;51.910;7.724;2023-01-31T01:30:43;101656.81;;;3.30;100.00
39265;BME280;42646;51.910;7.724;2023-01-31T01:33:14;101668.41;;;3.26;100.00
39265;BME280;42646;51.910;7.724;2023-01-31T01:35:42;101664.06;;;3.25;100.00
39265;BME280;42646;51.910;7.724;2023-01-31T01:38:36;101660.56;;;3.25;100.00
39265;BME280;42646;51.910;7.724;2023-01-31T01:41:07;101670.41;;;3.21;100.00
39265;BME280;42646;51.910;7.724;2023-01-31T01:43:43;101668.72;;;3.18;100.00
39265;BME280;42646;51.910;7.724;2023-01-31T01:46:16;101678.47;;;3.16;100.00
39265;BME280;42646;51.910;7.724;2023-01-31T01:48:49;101668.81;;;3.17;100.00
39265;BME280;42646;51.910;7.724;2023-01-31T01:51:18;101656.00;;;3.09;100.00
39265;BME280;42646;51.910;7.724;2023-01-31T01:53:53;101654.34;;;3.07;100.00
39265;BME280;42646;51.910;7.724;2023-01-31T01:56:27;101656.31;;;3.02;100.00
39265;BME280;42646;51.910;7.724;2023-01-31T01:59:04;101659.00;;;3.00;100.00
39265;BME280;42646;51.910;7.724;2023-01-31T02:01:38;101664.44;;;2.95;100.00
39265;BME280;42646;51.910;7.724;2023-01-31T02:04:13;101670.78;;;2.91;100.00
39265;BME280;42646;51.910;7.724;2023-01-31T02:06:43;101669.19;;;2.87;100.00
39265;BME280;42646;51.910;7.724;2023-01-31T02:09:18;101677.84;;;2.89;100.00
39265;BME280;42646;51.910;7.724;2023-01-31T02:11:47;101680.72;;;2.83;100.00
39265;BME280;42646;51.910;7.724;2023-01-31T02:14:15;101688.63;;;2.83;100.00
39265;BME280;42646;51.910;7.724;2023-01-31T02:16:46;101694.97;;;2.78;100.00
39265;BME280;42646;51.910;7.724;2023-01-31T02:19:31;101698.59;;;2.75;100.00
39265;BME280;42646;51.910;7.724;2023-01-31T02:22:14;101697.81;;;2.73;100.00
39265;BME280;42646;51.910;7.724;2023-01-31T02:25:13;101703.94;;;2.74;100.00
39265;BME280;42646;51.910;7.724;2023-01-31T02:28:27;101712.00;;;2.69;100.00
39265;BME280;42646;51.910;7.724;2023-01-31T02:31:31;101711.31;;;2.64;100.00
39265;BME280;42646;51.910;7.724;2023-01-31T02:34:13;101714.72;;;2.66;100.00
39265;BME280;42646;51.910;7.724;2023-01-31T02:36:57;101712.16;;;2.64;100.00
39265;BME280;42646;51.910;7.724;2023-01-31T02:39:38;101704.28;;;2.64;100.00
39265;BME280;42646;51.910;7.724;2023-01-31T02:42:14;101703.31;;;2.67;100.00
39265;BME280;42646;51.910;7.724;2023-01-31T02:44:51;101705.28;;;2.62;100.00
39265;BME280;42646;51.910;7.724;2023-01-31T02:47:46;101707.09;;;2.60;100.00
39265;BME280;42646;51.910;7.724;2023-01-31T02:50:28;101707.91;;;2.62;100.00
39265;BME280;42646;51.910;7.724;2023-01-31T02:53:02;101694.88;;;2.59;100.00
39265;BME280;42646;51.910;7.724;2023-01-31T02:55:38;101691.28;;;2.61;100.00
39265;BME280;42646;51.910;7.724;2023-01-31T02:58:30;101694.78;;;2.62;100.00
39265;BME280;42646;51.910;7.724;2023-01-31T03:01:03;101693.00;;;2.62;100.00
39265;BME280;42646;51.910;7.724;2023-01-31T03:03:35;101681.44;;;2.66;100.00
39265;BME280;42646;51.910;7.724;2023-01-31T03:06:48;101669.22;;;2.65;100.00
39265;BME280;42646;51.910;7.724;2023-01-31T03:09:36;101674.44;;;2.67;100.00
39265;BME280;42646;51.910;7.724;2023-01-31T03:12:17;101668.25;;;2.68;100.00
39265;BME280;42646;51.910;7.724;2023-01-31T03:15:30;101664.81;;;2.66;100.00
39265;BME280;42646;51.910;7.724;2023-01-31T03:18:23;101663.91;;;2.67;100.00
39265;BME280;42646;51.910;7.724;2023-01-31T03:20:59;101668.34;;;2.65;100.00
39265;BME280;42646;51.910;7.724;2023-01-31T03:23:34;101663.03;;;2.66;100.00
39265;BME280;42646;51.910;7.724;2023-01-31T03:26:06;101659.69;;;2.63;100.00
39265;BME280;42646;51.910;7.724;2023-01-31T03:28:35;101649.84;;;2.68;100.00
39265;BME280;42646;51.910;7.724;2023-01-31T03:31:13;101645.53;;;2.67;100.00
39265;BME280;42646;51.910;7.724;2023-01-31T03:33:55;101650.81;;;2.65;100.00
39265;BME280;42646;51.910;7.724;2023-01-31T03:36:29;101638.59;;;2.64;100.00
39265;BME280;42646;51.910;7.724;2023-01-31T03:39:23;101637.66;;;2.67;100.00
39265;BME280;42646;51.910;7.724;2023-01-31T03:42:01;101618.25;;;2.70;100.00
39265;BME280;42646;51.910;7.724;2023-01-31T03:44:39;101627.84;;;2.71;100.00
39265;BME280;42646;51.910;7.724;2023-01-31T03:47:13;101620.09;;;2.67;100.00
39265;BME280;42646;51.910;7.724;2023-01-31T03:49:49;101613.94;;;2.68;100.00
39265;BME280;42646;51.910;7.724;2023-01-31T03:52:25;101619.03;;;2.72;100.00
39265;BME280;42646;51.910;7.724;2023-01-31T03:55:00;101612.84;;;2.73;100.00
39265;BME280;42646;51.910;7.724;2023-01-31T03:57:32;101614.38;;;2.78;100.00
39265;BME280;42646;51.910;7.724;2023-01-31T04:00:08;101614.59;;;2.74;100.00
39265;BME280;42646;51.910;7.724;2023-01-31T04:02:50;101621.22;;;2.82;100.00
39265;BME280;42646;51.910;7.724;2023-01-31T04:05:23;101614.19;;;2.83;100.00
39265;BME280;42646;51.910;7.724;2023-01-31T04:07:56;101616.13;;;2.79;100.00
39265;BME280;42646;51.910;7.724;2023-01-31T04:10:35;101600.38;;;2.78;100.00
39265;BME280;42646;51.910;7.724;2023-01-31T04:13:03;101609.78;;;2.83;100.00
39265;BME280;42646;51.910;7.724;2023-01-31T04:15:31;101599.28;;;2.83;100.00
39265;BME280;42646;51.910;7.724;2023-01-31T04:17:59;101599.41;;;2.80;100.00
39265;BME280;42646;51.910;7.724;2023-01-31T04:20:31;101597.47;;;2.85;100.00
39265;BME280;42646;51.910;7.724;2023-01-31T04:22:59;101594.75;;;2.87;100.00
39265;BME280;42646;51.910;7.724;2023-01-31T04:25:28;101585.94;;;2.88;100.00
39265;BME280;42646;51.910;7.724;2023-01-31T04:28:27;101592.81;;;2.90;100.00
39265;BME280;42646;51.910;7.724;2023-01-31T04:30:55;101590.16;;;2.92;100.00
39265;BME280;42646;51.910;7.724;2023-01-31T04:33:25;101589.22;;;2.93;100.00
39265;BME280;42646;51.910;7.724;2023-01-31T04:35:53;101590.09;;;2.93;100.00
39265;BME280;42646;51.910;7.724;2023-01-31T04:38:21;101591.66;;;2.98;100.00
39265;BME280;42646;51.910;7.724;2023-01-31T04:40:56;101601.97;;;3.02;100.00
39265;BME280;42646;51.910;7.724;2023-01-31T04:43:33;101600.06;;;3.06;100.00
39265;BME280;42646;51.910;7.724;2023-01-31T04:46:00;101597.44;;;3.06;100.00
39265;BME280;42646;51.910;7.724;2023-01-31T04:48:30;101596.59;;;3.05;100.00
39265;BME280;42646;51.910;7.724;2023-01-31T04:51:01;101598.28;;;3.06;100.00
39265;BME280;42646;51.910;7.724;2023-01-31T04:53:34;101589.34;;;3.10;100.00
39265;BME280;42646;51.910;7.724;2023-01-31T04:56:11;101589.09;;;3.16;100.00
39265;BME280;42646;51.910;7.724;2023-01-31T04:58:41;101583.75;;;3.18;100.00
39265;BME280;42646;51.910;7.724;2023-01-31T05:01:09;101586.25;;;3.21;100.00
39265;BME280;42646;51.910;7.724;2023-01-31T05:03:37;101584.31;;;3.25;100.00
39265;BME280;42646;51.910;7.724;2023-01-31T05:06:12;101575.59;;;3.24;100.00
39265;BME280;42646;51.910;7.724;2023-01-31T05:08:41;101573.88;;;3.23;100.00
39265;BME280;42646;51.910;7.724;2023-01-31T05:11:18;101564.13;;;3.25;100.00
39265;BME280;42646;51.910;7.724;2023-01-31T05:13:51;101557.91;;;3.28;100.00
39265;BME280;42646;51.910;7.724;2023-01-31T05:16:20;101547.31;;;3.29;100.00
39265;BME280;42646;51.910;7.724;2023-01-31T05:18:48;101541.13;;;3.30;100.00
39265;BME280;42646;51.910;7.724;2023-01-31T05:21:16;101523.56;;;3.31;100.00
39265;BME280;42646;51.910;7.724;2023-01-31T05:23:45;101517.44;;;3.30;100.00
39265;BME280;42646;51.910;7.724;2023-01-31T05:26:12;101513.97;;;3.30;100.00
39265;BME280;42646;51.910;7.724;2023-01-31T05:29:08;101501.84;;;3.27;100.00
39265;BME280;42646;51.910;7.724;2023-01-31T05:31:39;101495.66;;;3.28;100.00
39265;BME280;42646;51.910;7.724;2023-01-31T05:34:13;101504.47;;;3.27;100.00
39265;BME280;42646;51.910;7.724;2023-01-31T05:36:44;101497.44;;;3.28;100.00
39265;BME280;42646;51.910;7.724;2023-01-31T05:39:13;101502.75;;;3.26;100.00
39265;BME280;42646;51.910;7.724;2023-01-31T05:41:44;101488.69;;;3.27;100.00
39265;BME280;42646;51.910;7.724;2023-01-31T05:44:17;101500.75;;;3.31;100.00
39265;BME280;42646;51.910;7.724;2023-01-31T05:46:48;101494.78;;;3.28;100.00
39265;BME280;42646;51.910;7.724;2023-01-31T05:49:17;101494.72;;;3.29;100.00
39265;BME280;42646;51.910;7.724;2023-01-31T05:51:45;101490.19;;;3.33;100.00
39265;BME280;42646;51.910;7.724;2023-01-31T05:54:20;101491.06;;;3.32;100.00
39265;BME280;42646;51.910;7.724;2023-01-31T05:56:48;101488.41;;;3.33;100.00
39265;BME280;42646;51.910;7.724;2023-01-31T05:59:18;101471.53;;;3.37;100.00
39265;BME280;42646;51.910;7.724;2023-01-31T06:01:46;101468.91;;;3.37;100.00
39265;BME280;42646;51.910;7.724;2023-01-31T06:04:16;101460.97;;;3.39;100.00
39265;BME280;42646;51.910;7.724;2023-01-31T06:07:15;101458.03;;;3.45;100.00
39265;BME280;42646;51.910;7.724;2023-01-31T06:09:43;101466.78;;;3.45;100.00
39265;BME280;42646;51.910;7.724;2023-01-31T06:12:12;101476.50;;;3.43;100.00
39265;BME280;42646;51.910;7.724;2023-01-31T06:14:48;101479.94;;;3.45;100.00
39265;BME280;42646;51.910;7.724;2023-01-31T06:17:26;101466.31;;;3.55;100.00
39265;BME280;42646;51.910;7.724;2023-01-31T06:19:55;101476.00;;;3.54;100.00
39265;BME280;42646;51.910;7.724;2023-01-31T06:22:32;101484.59;;;3.58;100.00
39265;BME280;42646;51.910;7.724;2023-01-31T06:25:00;101486.31;;;3.59;100.00
39265;BME280;42646;51.910;7.724;2023-01-31T06:27:31;101483.69;;;3.59;100.00
39265;BME280;42646;51.910;7.724;2023-01-31T06:30:30;101494.06;;;3.62;100.00
39265;BME280;42646;51.910;7.724;2023-01-31T06:33:01;101494.47;;;3.71;100.00
39265;BME280;42646;51.910;7.724;2023-01-31T06:35:57;101492.47;;;3.77;100.00
39265;BME280;42646;51.910;7.724;2023-01-31T06:38:33;101489.06;;;3.74;100.00
39265;BME280;42646;51.910;7.724;2023-01-31T06:41:04;101474.75;;;3.80;100.00
39265;BME280;42646;51.910;7.724;2023-01-31T06:43:31;101476.28;;;3.84;100.00
39265;BME280;42646;51.910;7.724;2023-01-31T06:46:02;101478.00;;;3.85;100.00
39265;BME280;42646;51.910;7.724;2023-01-31T06:48:32;101478.56;;;3.92;100.00
39265;BME280;42646;51.910;7.724;2023-01-31T06:51:23;101481.88;;;3.95;100.00
39265;BME280;42646;51.910;7.724;2023-01-31T06:53:52;101488.72;;;3.99;100.00
39265;BME280;42646;51.910;7.724;2023-01-31T06:56:27;101492.28;;;3.98;100.00
39265;BME280;42646;51.910;7.724;2023-01-31T06:58:58;101493.25;;;3.96;100.00
39265;BME280;42646;51.910;7.724;2023-01-31T07:01:30;101487.94;;;3.97;100.00
39265;BME280;42646;51.910;7.724;2023-01-31T07:04:22;101485.00;;;4.04;100.00
39265;BME280;42646;51.910;7.724;2023-01-31T07:06:51;101482.38;;;4.04;100.00
39265;BME280;42646;51.910;7.724;2023-01-31T07:09:20;101464.50;;;4.10;100.00
39265;BME280;42646;51.910;7.724;2023-01-31T07:11:47;101477.41;;;4.15;100.00
39265;BME280;42646;51.910;7.724;2023-01-31T07:14:23;101470.53;;;4.12;100.00
39265;BME280;42646;51.910;7.724;2023-01-31T07:16:54;101487.94;;;4.15;100.00
39265;BME280;42646;51.910;7.724;2023-01-31T07:19:22;101477.41;;;4.15;100.00
39265;BME280;42646;51.910;7.724;2023-01-31T07:21:50;101465.16;;;4.14;100.00
39265;BME280;42646;51.910;7.724;2023-01-31T07:24:26;101469.44;;;4.16;100.00
39265;BME280;42646;51.910;7.724;2023-01-31T07:26:54;101477.81;;;4.24;100.00
39265;BME280;42646;51.910;7.724;2023-01-31T07:29:22;101470.06;;;4.21;100.00
39265;BME280;42646;51.910;7.724;2023-01-31T07:31:50;101461.25;;;4.22;100.00
39265;BME280;42646;51.910;7.724;2023-01-31T07:34:25;101458.91;;;4.34;100.00
39265;BME280;42646;51.910;7.724;2023-01-31T07:36:56;101464.31;;;4.31;100.00
39265;BME280;42646;51.910;7.724;2023-01-31T07:39:27;101466.19;;;4.28;100.00
39265;BME280;42646;51.910;7.724;2023-01-31T07:41:56;101464.41;;;4.29;100.00
39265;BME280;42646;51.910;7.724;2023-01-31T07:44:24;101451.84;;;4.34;100.00
39265;BME280;42646;51.910;7.724;2023-01-31T07:46:53;101461.38;;;4.37;100.00
39265;BME280;42646;51.910;7.724;2023-01-31T07:50:01;101455.34;;;4.35;100.00
39265;BME280;42646;51.910;7.724;2023-01-31T07:52:39;101461.28;;;4.38;100.00
39265;BME280;42646;51.910;7.724;2023-01-31T07:55:09;101453.47;;;4.37;100.00
39265;BME280;42646;51.910;7.724;2023-01-31T07:57:36;101447.25;;;4.38;100.00
39265;BME280;42646;51.910;7.724;2023-01-31T08:00:08;101449.53;;;4.45;100.00
39265;BME280;42646;51.910;7.724;2023-01-31T08:03:03;101447.66;;;4.47;100.00
39265;BME280;42646;51.910;7.724;2023-01-31T08:05:50;101434.38;;;4.49;100.00
39265;BME280;42646;51.910;7.724;2023-01-31T08:08:20;101433.59;;;4.64;100.00
39265;BME280;42646;51.910;7.724;2023-01-31T08:10:50;101435.53;;;4.61;100.00
39265;BME280;42646;51.910;7.724;2023-01-31T08:13:17;101428.56;;;4.60;100.00
39265;BME280;42646;51.910;7.724;2023-01-31T08:15:50;101437.31;;;4.60;100.00
39265;BME280;42646;51.910;7.724;2023-01-31T08:18:18;101423.38;;;4.58;100.00
39265;BME280;42646;51.910;7.724;2023-01-31T08:20:47;101432.91;;;4.61;100.00
39265;BME280;42646;51.910;7.724;2023-01-31T08:23:23;101415.06;;;4.66;100.00
39265;BME280;42646;51.910;7.724;2023-01-31T08:25:58;101414.31;;;4.64;100.00
39265;BME280;42646;51.910;7.724;2023-01-31T08:28:52;101412.50;;;4.64;100.00
39265;BME280;42646;51.910;7.724;2023-01-31T08:31:26;101404.59;;;4.64;100.00
39265;BME280;42646;51.910;7.724;2023-01-31T08:33:56;101407.25;;;4.64;100.00
39265;BME280;42646;51.910;7.724;2023-01-31T08:36:27;101404.19;;;4.72;100.00
39265;BME280;42646;51.910;7.724;2023-01-31T08:38:59;101405.22;;;4.69;100.00
39265;BME280;42646;51.910;7.724;2023-01-31T08:41:53;101407.91;;;4.68;100.00
39265;BME280;42646;51.910;7.724;2023-01-31T08:44:26;101392.94;;;4.68;100.00
39265;BME280;42646;51.910;7.724;2023-01-31T08:46:57;101386.78;;;4.69;100.00
39265;BME280;42646;51.910;7.724;2023-01-31T08:49:28;101376.13;;;4.71;100.00
39265;BME280;42646;51.910;7.724;2023-01-31T08:51:59;101378.69;;;4.72;100.00
39265;BME280;42646;51.910;7.724;2023-01-31T08:54:29;101370.97;;;4.69;100.00
39265;BME280;42646;51.910;7.724;2023-01-31T08:56:57;101367.47;;;4.69;100.00
39265;BME280;42646;51.910;7.724;2023-01-31T08:59:27;101374.59;;;4.67;100.00
39265;BME280;42646;51.910;7.724;2023-01-31T09:01:55;101357.09;;;4.66;100.00
39265;BME280;42646;51.910;7.724;2023-01-31T09:04:23;101371.63;;;4.73;100.00
39265;BME280;42646;51.910;7.724;2023-01-31T09:06:54;101353.13;;;4.74;100.00
39265;BME280;42646;51.910;7.724;2023-01-31T09:09:24;101353.28;;;4.71;100.00
39265;BME280;42646;51.910;7.724;2023-01-31T09:11:58;101349.53;;;4.75;100.00
39265;BME280;42646;51.910;7.724;2023-01-31T09:14:30;101360.00;;;4.77;100.00
39265;BME280;42646;51.910;7.724;2023-01-31T09:16:59;101347.56;;;4.79;100.00
39265;BME280;42646;51.910;7.724;2023-01-31T09:19:26;101346.56;;;4.81;100.00
39265;BME280;42646;51.910;7.724;2023-01-31T09:21:54;101341.44;;;4.78;100.00
39265;BME280;42646;51.910;7.724;2023-01-31T09:24:25;101332.69;;;4.78;100.00
39265;BME280;42646;51.910;7.724;2023-01-31T09:26:53;101326.66;;;4.92;100.00
39265;BME280;42646;51.910;7.724;2023-01-31T09:29:25;101324.44;;;5.00;100.00
39265;BME280;42646;51.910;7.724;2023-01-31T09:31:54;101327.44;;;4.94;100.00
39265;BME280;42646;51.910;7.724;2023-01-31T09:34:24;101341.13;;;5.00;100.00
39265;BME280;42646;51.910;7.724;2023-01-31T09:36:51;101331.66;;;4.96;100.00
39265;BME280;42646;51.910;7.724;2023-01-31T09:39:23;101345.88;;;4.94;100.00
39265;BME280;42646;51.910;7.724;2023-01-31T09:41:53;101346.53;;;4.97;100.00
39265;BME280;42646;51.910;7.724;2023-01-31T09:44:26;101348.28;;;4.98;100.00
39265;BME280;42646;51.910;7.724;2023-01-31T09:47:07;101335.66;;;5.03;100.00
39265;BME280;42646;51.910;7.724;2023-01-31T09:49:43;101323.59;;;4.99;100.00
39265;BME280;42646;51.910;7.724;2023-01-31T09:52:12;101313.31;;;5.11;100.00
39265;BME280;42646;51.910;7.724;2023-01-31T09:55:40;101307.00;;;5.13;100.00
39265;BME280;42646;51.910;7.724;2023-01-31T09:59:31;101319.59;;;5.08;100.00
39265;BME280;42646;51.910;7.724;2023-01-31T10:02:29;101316.19;;;5.22;100.00
39265;BME280;42646;51.910;7.724;2023-01-31T10:05:05;101318.47;;;5.12;100.00
39265;BME280;42646;51.910;7.724;2023-01-31T10:07:43;101313.31;;;5.11;100.00
39265;BME280;42646;51.910;7.724;2023-01-31T10:10:21;101325.09;;;5.19;100.00
39265;BME280;42646;51.910;7.724;2023-01-31T10:12:53;101321.72;;;5.17;100.00
39265;BME280;42646;51.910;7.724;2023-01-31T10:15:30;101332.66;;;5.25;100.00
39265;BME280;42646;51.910;7.724;2023-01-31T10:18:01;101330.88;;;5.26;100.00
39265;BME280;42646;51.910;7.724;2023-01-31T10:20:32;101330.88;;;5.26;100.00
39265;BME280;42646;51.910;7.724;2023-01-31T10:23:06;101336.50;;;5.20;100.00
39265;BME280;42646;51.910;7.724;2023-01-31T10:25:38;101330.28;;;5.21;100.00
39265;BME280;42646;51.910;7.724;2023-01-31T10:28:11;101323.16;;;5.23;100.00
39265;BME280;42646;51.910;7.724;2023-01-31T10:30:45;101315.81;;;5.28;100.00
39265;BME280;42646;51.910;7.724;2023-01-31T10:33:23;101294.16;;;5.37;100.00
39265;BME280;42646;51.910;7.724;2023-01-31T10:35:54;101302.09;;;5.37;100.00
39265;BME280;42646;51.910;7.724;2023-01-31T10:38:26;101299.53;;;5.35;100.00
39265;BME280;42646;51.910;7.724;2023-01-31T10:41:03;101305.47;;;5.39;100.00
39265;BME280;42646;51.910;7.724;2023-01-31T10:43:37;101285.16;;;5.41;100.00
39265;BME280;42646;51.910;7.724;2023-01-31T10:46:11;101289.59;;;5.41;100.00
39265;BME280;42646;51.910;7.724;2023-01-31T10:48:41;101282.25;;;5.46;100.00
39265;BME280;42646;51.910;7.724;2023-01-31T10:51:23;101267.25;;;5.46;100.00
39265;BME280;42646;51.910;7.724;2023-01-31T10:54:05;101268.84;;;5.49;100.00
39265;BME280;42646;51.910;7.724;2023-01-31T10:56:41;101261.53;;;5.54;100.00
39265;BME280;42646;51.910;7.724;2023-01-31T10:59:14;101258.88;;;5.40;100.00
39265;BME280;42646;51.910;7.724;2023-01-31T11:01:47;101263.06;;;5.58;100.00
39265;BME280;42646;51.910;7.724;2023-01-31T11:04:23;101260.19;;;5.47;100.00
39265;BME280;42646;51.910;7.724;2023-01-31T11:06:52;101256.78;;;5.45;100.00
39265;BME280;42646;51.910;7.724;2023-01-31T11:09:21;101257.56;;;5.47;100.00
39265;BME280;42646;51.910;7.724;2023-01-31T11:11:55;101256.72;;;5.46;100.00
39265;BME280;42646;51.910;7.724;2023-01-31T11:14:24;101244.63;;;5.42;100.00
39265;BME280;42646;51.910;7.724;2023-01-31T11:16:58;101247.94;;;5.46;100.00
39265;BME280;42646;51.910;7.724;2023-01-31T11:19:35;101248.78;;;5.46;100.00
39265;BME280;42646;51.910;7.724;2023-01-31T11:22:04;101242.38;;;5.50;100.00
39265;BME280;42646;51.910;7.724;2023-01-31T11:24:35;101225.03;;;5.46;100.00
39265;BME280;42646;51.910;7.724;2023-01-31T11:27:05;101211.75;;;5.48;100.00
39265;BME280;42646;51.910;7.724;2023-01-31T11:29:37;101211.06;;;5.44;100.00
39265;BME280;42646;51.910;7.724;2023-01-31T11:32:14;101218.44;;;5.53;100.00
39265;BME280;42646;51.910;7.724;2023-01-31T11:34:55;101228.44;;;5.62;100.00
39265;BME280;42646;51.910;7.724;2023-01-31T11:37:23;101211.69;;;5.63;100.00
39265;BME280;42646;51.910;7.724;2023-01-31T11:39:55;101219.88;;;5.59;100.00
39265;BME280;42646;51.910;7.724;2023-01-31T11:42:24;101215.44;;;5.59;100.00
39265;BME280;42646;51.910;7.724;2023-01-31T11:44:54;101215.63;;;5.56;100.00
39265;BME280;42646;51.910;7.724;2023-01-31T11:47:30;101227.31;;;5.67;100.00
39265;BME280;42646;51.910;7.724;2023-01-31T11:50:00;101223.00;;;5.66;100.00
39265;BME280;42646;51.910;7.724;2023-01-31T11:52:30;101209.03;;;5.63;100.00
39265;BME280;42646;51.910;7.724;2023-01-31T11:55:05;101200.56;;;5.73;100.00
39265;BME280;42646;51.910;7.724;2023-01-31T11:57:35;101209.41;;;5.72;100.00
39265;BME280;42646;51.910;7.724;2023-01-31T12:00:16;101201.28;;;5.75;100.00
39265;BME280;42646;51.910;7.724;2023-01-31T12:02:53;101208.56;;;5.71;100.00
39265;BME280;42646;51.910;7.724;2023-01-31T12:05:34;101200.81;;;5.68;100.00
39265;BME280;42646;51.910;7.724;2023-01-31T12:08:03;101191.03;;;5.70;100.00
39265;BME280;42646;51.910;7.724;2023-01-31T12:10:35;101191.13;;;5.69;100.00
39265;BME280;42646;51.910;7.724;2023-01-31T12:13:15;101172.94;;;5.78;100.00
39265;BME280;42646;51.910;7.724;2023-01-31T12:15:50;101159.34;;;5.84;100.00
39265;BME280;42646;51.910;7.724;2023-01-31T12:18:33;101157.56;;;5.85;100.00
39265;BME280;42646;51.910;7.724;2023-01-31T12:21:09;101161.81;;;5.87;100.00
39265;BME280;42646;51.910;7.724;2023-01-31T12:23:48;101146.47;;;5.94;100.00
39265;BME280;42646;51.910;7.724;2023-01-31T12:26:31;101151.25;;;5.87;100.00
39265;BME280;42646;51.910;7.724;2023-01-31T12:29:12;101149.75;;;5.98;100.00
39265;BME280;42646;51.910;7.724;2023-01-31T12:32:01;101160.00;;;6.02;100.00
39265;BME280;42646;51.910;7.724;2023-01-31T12:34:58;101152.19;;;6.01;100.00
39265;BME280;42646;51.910;7.724;2023-01-31T12:37:42;101146.41;;;6.08;100.00
39265;BME280;42646;51.910;7.724;2023-01-31T12:40:34;101142.66;;;6.12;100.00
39265;BME280;42646;51.910;7.724;2023-01-31T12:43:13;101138.22;;;6.13;100.00
39265;BME280;42646;51.910;7.724;2023-01-31T12:45:52;101147.16;;;6.10;100.00
39265;BME280;42646;51.910;7.724;2023-01-31T12:48:43;101149.28;;;6.05;100.00
39265;BME280;42646;51.910;7.724;2023-01-31T12:51:36;101135.28;;;6.18;100.00
39265;BME280;42646;51.910;7.724;2023-01-31T12:54:29;101149.53;;;6.15;100.00
39265;BME280;42646;51.910;7.724;2023-01-31T12:57:12;101144.53;;;6.10;100.00
39265;BME280;42646;51.910;7.724;2023-01-31T12:59:45;101155.09;;;6.10;100.00
39265;BME280;42646;51.910;7.724;2023-01-31T13:02:30;101155.28;;;6.07;100.00
39265;BME280;42646;51.910;7.724;2023-01-31T13:05:06;101154.16;;;6.11;100.00
39265;BME280;42646;51.910;7.724;2023-01-31T13:07:42;101150.19;;;6.04;100.00
39265;BME280;42646;51.910;7.724;2023-01-31T13:10:25;101149.63;;;6.13;100.00
39265;BME280;42646;51.910;7.724;2023-01-31T13:12:57;101153.94;;;6.14;100.00
39265;BME280;42646;51.910;7.724;2023-01-31T13:15:30;101150.38;;;6.15;100.00
39265;BME280;42646;51.910;7.724;2023-01-31T13:18:05;101151.91;;;6.05;100.00
39265;BME280;42646;51.910;7.724;2023-01-31T13:20:35;101150.00;;;6.07;100.00
39265;BME280;42646;51.910;7.724;2023-01-31T13:23:11;101155.75;;;6.14;100.00
39265;BME280;42646;51.910;7.724;2023-01-31T13:25:42;101157.19;;;6.05;100.00
39265;BME280;42646;51.910;7.724;2023-01-31T13:28:16;101150.75;;;6.09;100.00
39265;BME280;42646;51.910;7.724;2023-01-31T13:30:50;101141.97;;;6.09;100.00